sensor_id;sensor_type;location;lat;lon;timestamp;P1;durP1;ratioP1;P2;durP2;ratioP2
51612;SDS011;37694;51.748;14.326;2024-03-02T00:02:12;17.50;;;9.02;;
51612;SDS011;37694;51.748;14.326;2024-03-02T00:04:38;15.80;;;8.35;;
51612;SDS011;37694;51.748;14.326;2024-03-02T00:07:04;14.13;;;7.82;;
51612;SDS011;37694;51.748;14.326;2024-03-02T00:09:29;16.08;;;8.73;;
51612;SDS011;37694;51.748;14.326;2024-03-02T00:11:55;10.77;;;7.88;;
51612;SDS011;37694;51.748;14.326;2024-03-02T00:14:25;15.98;;;8.68;;
51612;SDS011;37694;51.748;14.326;2024-03-02T00:16:54;11.73;;;8.20;;
51612;SDS011;37694;51.748;14.326;2024-03-02T00:19:21;8.85;;;7.22;;
51612;SDS011;37694;51.748;14.326;2024-03-02T00:21:46;15.60;;;8.98;;
51612;SDS011;37694;51.748;14.326;2024-03-02T00:24:24;15.43;;;8.75;;
51612;SDS011;37694;51.748;14.326;2024-03-02T00:26:59;14.13;;;8.55;;
51612;SDS011;37694;51.748;14.326;2024-03-02T00:29:26;11.77;;;8.68;;
51612;SDS011;37694;51.748;14.326;2024-03-02T00:31:54;12.23;;;8.40;;
51612;SDS011;37694;51.748;14.326;2024-03-02T00:34:20;11.18;;;7.95;;
51612;SDS011;37694;51.748;14.326;2024-03-02T00:36:47;14.23;;;8.98;;
51612;SDS011;37694;51.748;14.326;2024-03-02T00:39:14;13.80;;;8.90;;
51612;SDS011;37694;51.748;14.326;2024-03-02T00:41:42;16.10;;;8.85;;
51612;SDS011;37694;51.748;14.326;2024-03-02T00:44:09;13.93;;;8.68;;
51612;SDS011;37694;51.748;14.326;2024-03-02T00:46:38;11.57;;;8.02;;
51612;SDS011;37694;51.748;14.326;2024-03-02T00:49:25;10.93;;;8.50;;
51612;SDS011;37694;51.748;14.326;2024-03-02T00:51:53;12.77;;;9.27;;
51612;SDS011;37694;51.748;14.326;2024-03-02T00:54:20;11.05;;;8.68;;
51612;SDS011;37694;51.748;14.326;2024-03-02T00:56:53;12.18;;;9.20;;
51612;SDS011;37694;51.748;14.326;2024-03-02T00:59:20;14.60;;;9.05;;
51612;SDS011;37694;51.748;14.326;2024-03-02T01:01:49;12.63;;;8.18;;
51612;SDS011;37694;51.748;14.326;2024-03-02T01:04:15;13.02;;;9.15;;
51612;SDS011;37694;51.748;14.326;2024-03-02T01:06:44;12.45;;;8.20;;
51612;SDS011;37694;51.748;14.326;2024-03-02T01:09:10;12.35;;;8.13;;
51612;SDS011;37694;51.748;14.326;2024-03-02T01:11:37;11.40;;;8.63;;
51612;SDS011;37694;51.748;14.326;2024-03-02T01:14:03;11.80;;;8.27;;
51612;SDS011;37694;51.748;14.326;2024-03-02T01:16:29;12.88;;;8.82;;
51612;SDS011;37694;51.748;14.326;2024-03-02T01:18:55;19.58;;;9.85;;
51612;SDS011;37694;51.748;14.326;2024-03-02T01:21:21;13.50;;;8.73;;
51612;SDS011;37694;51.748;14.326;2024-03-02T01:23:46;14.68;;;8.55;;
51612;SDS011;37694;51.748;14.326;2024-03-02T01:26:13;12.43;;;8.55;;
51612;SDS011;37694;51.748;14.326;2024-03-02T01:28:38;11.20;;;8.05;;
51612;SDS011;37694;51.748;14.326;2024-03-02T01:31:04;13.85;;;9.10;;
51612;SDS011;37694;51.748;14.326;2024-03-02T01:33:30;13.02;;;10.45;;
51612;SDS011;37694;51.748;14.326;2024-03-02T01:35:55;15.75;;;9.40;;
51612;SDS011;37694;51.748;14.326;2024-03-02T01:38:21;11.30;;;8.25;;
51612;SDS011;37694;51.748;14.326;2024-03-02T01:40:47;14.57;;;8.30;;
51612;SDS011;37694;51.748;14.326;2024-03-02T01:43:13;10.52;;;8.65;;
51612;SDS011;37694;51.748;14.326;2024-03-02T01:45:39;12.30;;;8.77;;
51612;SDS011;37694;51.748;14.326;2024-03-02T01:48:05;12.60;;;9.02;;
51612;SDS011;37694;51.748;14.326;2024-03-02T01:50:32;12.45;;;9.48;;
51612;SDS011;37694;51.748;14.326;2024-03-02T01:52:58;12.63;;;9.00;;
51612;SDS011;37694;51.748;14.326;2024-03-02T01:55:25;11.57;;;8.15;;
51612;SDS011;37694;51.748;14.326;2024-03-02T01:57:51;14.95;;;8.88;;
51612;SDS011;37694;51.748;14.326;2024-03-02T02:00:18;14.30;;;9.20;;
51612;SDS011;37694;51.748;14.326;2024-03-02T02:02:44;13.07;;;9.00;;
51612;SDS011;37694;51.748;14.326;2024-03-02T02:05:11;12.80;;;8.50;;
51612;SDS011;37694;51.748;14.326;2024-03-02T02:07:37;11.80;;;8.50;;
51612;SDS011;37694;51.748;14.326;2024-03-02T02:10:03;11.02;;;8.55;;
51612;SDS011;37694;51.748;14.326;2024-03-02T02:12:29;11.85;;;8.75;;
51612;SDS011;37694;51.748;14.326;2024-03-02T02:14:55;11.05;;;8.70;;
51612;SDS011;37694;51.748;14.326;2024-03-02T02:17:21;12.23;;;8.35;;
51612;SDS011;37694;51.748;14.326;2024-03-02T02:19:46;11.73;;;8.60;;
51612;SDS011;37694;51.748;14.326;2024-03-02T02:22:12;11.27;;;8.60;;
51612;SDS011;37694;51.748;14.326;2024-03-02T02:24:41;12.07;;;9.25;;
51612;SDS011;37694;51.748;14.326;2024-03-02T02:27:07;11.57;;;8.23;;
51612;SDS011;37694;51.748;14.326;2024-03-02T02:29:33;11.57;;;8.25;;
51612;SDS011;37694;51.748;14.326;2024-03-02T02:32:00;13.02;;;9.20;;
51612;SDS011;37694;51.748;14.326;2024-03-02T02:34:25;11.52;;;8.75;;
51612;SDS011;37694;51.748;14.326;2024-03-02T02:36:51;13.88;;;8.73;;
51612;SDS011;37694;51.748;14.326;2024-03-02T02:39:17;12.82;;;9.77;;
51612;SDS011;37694;51.748;14.326;2024-03-02T02:41:46;13.25;;;7.97;;
51612;SDS011;37694;51.748;14.326;2024-03-02T02:44:11;12.27;;;8.93;;
51612;SDS011;37694;51.748;14.326;2024-03-02T02:46:38;12.07;;;8.55;;
51612;SDS011;37694;51.748;14.326;2024-03-02T02:49:04;11.55;;;8.73;;
51612;SDS011;37694;51.748;14.326;2024-03-02T02:51:30;12.77;;;9.55;;
51612;SDS011;37694;51.748;14.326;2024-03-02T02:53:56;10.15;;;8.32;;
51612;SDS011;37694;51.748;14.326;2024-03-02T02:56:21;12.13;;;8.70;;
51612;SDS011;37694;51.748;14.326;2024-03-02T02:58:47;13.63;;;9.10;;
51612;SDS011;37694;51.748;14.326;2024-03-02T03:01:13;10.18;;;8.10;;
51612;SDS011;37694;51.748;14.326;2024-03-02T03:03:42;10.20;;;8.35;;
51612;SDS011;37694;51.748;14.326;2024-03-02T03:06:07;11.80;;;7.97;;
51612;SDS011;37694;51.748;14.326;2024-03-02T03:08:33;10.35;;;7.80;;
51612;SDS011;37694;51.748;14.326;2024-03-02T03:10:59;10.35;;;8.60;;
51612;SDS011;37694;51.748;14.326;2024-03-02T03:13:24;12.77;;;8.55;;
51612;SDS011;37694;51.748;14.326;2024-03-02T03:15:50;10.57;;;8.35;;
51612;SDS011;37694;51.748;14.326;2024-03-02T03:18:16;10.05;;;8.25;;
51612;SDS011;37694;51.748;14.326;2024-03-02T03:20:41;13.73;;;8.55;;
51612;SDS011;37694;51.748;14.326;2024-03-02T03:23:07;10.77;;;8.32;;
51612;SDS011;37694;51.748;14.326;2024-03-02T03:25:33;10.23;;;7.75;;
51612;SDS011;37694;51.748;14.326;2024-03-02T03:27:59;10.65;;;8.70;;
51612;SDS011;37694;51.748;14.326;2024-03-02T03:30:27;10.65;;;8.02;;
51612;SDS011;37694;51.748;14.326;2024-03-02T03:32:52;10.40;;;9.32;;
51612;SDS011;37694;51.748;14.326;2024-03-02T03:35:18;10.38;;;8.07;;
51612;SDS011;37694;51.748;14.326;2024-03-02T03:37:44;12.38;;;8.20;;
51612;SDS011;37694;51.748;14.326;2024-03-02T03:40:09;10.77;;;8.32;;
51612;SDS011;37694;51.748;14.326;2024-03-02T03:42:36;10.38;;;8.25;;
51612;SDS011;37694;51.748;14.326;2024-03-02T03:45:02;10.75;;;8.82;;
51612;SDS011;37694;51.748;14.326;2024-03-02T03:47:28;11.48;;;8.75;;
51612;SDS011;37694;51.748;14.326;2024-03-02T03:49:54;9.77;;;7.88;;
51612;SDS011;37694;51.748;14.326;2024-03-02T03:52:20;12.48;;;9.27;;
51612;SDS011;37694;51.748;14.326;2024-03-02T03:54:46;11.10;;;7.85;;
51612;SDS011;37694;51.748;14.326;2024-03-02T03:57:12;11.50;;;9.35;;
51612;SDS011;37694;51.748;14.326;2024-03-02T03:59:37;9.45;;;8.20;;
51612;SDS011;37694;51.748;14.326;2024-03-02T04:02:03;9.88;;;7.65;;
51612;SDS011;37694;51.748;14.326;2024-03-02T04:04:29;11.50;;;8.68;;
51612;SDS011;37694;51.748;14.326;2024-03-02T04:06:55;9.27;;;8.05;;
51612;SDS011;37694;51.748;14.326;2024-03-02T04:09:20;11.00;;;8.70;;
51612;SDS011;37694;51.748;14.326;2024-03-02T04:11:46;13.40;;;8.25;;
51612;SDS011;37694;51.748;14.326;2024-03-02T04:14:12;9.25;;;7.70;;
51612;SDS011;37694;51.748;14.326;2024-03-02T04:16:38;10.20;;;8.48;;
51612;SDS011;37694;51.748;14.326;2024-03-02T04:19:04;10.13;;;7.95;;
51612;SDS011;37694;51.748;14.326;2024-03-02T04:21:30;11.38;;;8.20;;
51612;SDS011;37694;51.748;14.326;2024-03-02T04:23:55;9.65;;;7.70;;
51612;SDS011;37694;51.748;14.326;2024-03-02T04:26:23;11.88;;;8.88;;
51612;SDS011;37694;51.748;14.326;2024-03-02T04:28:50;9.63;;;7.95;;
51612;SDS011;37694;51.748;14.326;2024-03-02T04:31:16;9.70;;;7.72;;
51612;SDS011;37694;51.748;14.326;2024-03-02T04:33:42;11.93;;;8.05;;
51612;SDS011;37694;51.748;14.326;2024-03-02T04:36:08;9.93;;;8.70;;
51612;SDS011;37694;51.748;14.326;2024-03-02T04:38:36;12.55;;;7.80;;
51612;SDS011;37694;51.748;14.326;2024-03-02T04:41:04;9.07;;;8.05;;
51612;SDS011;37694;51.748;14.326;2024-03-02T04:43:33;11.65;;;7.28;;
51612;SDS011;37694;51.748;14.326;2024-03-02T04:45:59;9.90;;;7.65;;
51612;SDS011;37694;51.748;14.326;2024-03-02T04:48:26;11.32;;;8.75;;
51612;SDS011;37694;51.748;14.326;2024-03-02T04:50:52;8.45;;;7.60;;
51612;SDS011;37694;51.748;14.326;2024-03-02T04:53:17;8.68;;;7.60;;
51612;SDS011;37694;51.748;14.326;2024-03-02T04:55:43;9.38;;;7.38;;
51612;SDS011;37694;51.748;14.326;2024-03-02T04:58:09;8.35;;;7.30;;
51612;SDS011;37694;51.748;14.326;2024-03-02T05:00:34;10.25;;;7.72;;
51612;SDS011;37694;51.748;14.326;2024-03-02T05:03:01;10.20;;;7.65;;
51612;SDS011;37694;51.748;14.326;2024-03-02T05:05:29;9.45;;;7.88;;
51612;SDS011;37694;51.748;14.326;2024-03-02T05:07:55;8.77;;;7.78;;
51612;SDS011;37694;51.748;14.326;2024-03-02T05:10:20;12.60;;;8.52;;
51612;SDS011;37694;51.748;14.326;2024-03-02T05:12:46;10.32;;;7.45;;
51612;SDS011;37694;51.748;14.326;2024-03-02T05:15:22;11.32;;;8.05;;
51612;SDS011;37694;51.748;14.326;2024-03-02T05:17:47;8.90;;;7.10;;
51612;SDS011;37694;51.748;14.326;2024-03-02T05:20:13;10.57;;;7.68;;
51612;SDS011;37694;51.748;14.326;2024-03-02T05:22:38;9.30;;;7.18;;
51612;SDS011;37694;51.748;14.326;2024-03-02T05:25:05;11.07;;;7.43;;
51612;SDS011;37694;51.748;14.326;2024-03-02T05:27:31;9.68;;;7.75;;
51612;SDS011;37694;51.748;14.326;2024-03-02T05:30:00;8.40;;;7.50;;
51612;SDS011;37694;51.748;14.326;2024-03-02T05:32:26;9.55;;;7.55;;
51612;SDS011;37694;51.748;14.326;2024-03-02T05:34:52;8.10;;;6.90;;
51612;SDS011;37694;51.748;14.326;2024-03-02T05:37:17;8.43;;;7.18;;
51612;SDS011;37694;51.748;14.326;2024-03-02T05:39:43;8.05;;;6.63;;
51612;SDS011;37694;51.748;14.326;2024-03-02T05:42:09;7.43;;;6.68;;
51612;SDS011;37694;51.748;14.326;2024-03-02T05:44:35;7.75;;;6.55;;
51612;SDS011;37694;51.748;14.326;2024-03-02T05:47:01;10.50;;;7.25;;
51612;SDS011;37694;51.748;14.326;2024-03-02T05:49:28;11.70;;;7.80;;
51612;SDS011;37694;51.748;14.326;2024-03-02T05:51:53;7.47;;;6.70;;
51612;SDS011;37694;51.748;14.326;2024-03-02T05:54:19;9.40;;;6.88;;
51612;SDS011;37694;51.748;14.326;2024-03-02T05:56:45;8.63;;;6.32;;
51612;SDS011;37694;51.748;14.326;2024-03-02T05:59:10;8.52;;;7.15;;
51612;SDS011;37694;51.748;14.326;2024-03-02T06:04:04;13.05;;;6.65;;
51612;SDS011;37694;51.748;14.326;2024-03-02T06:06:30;11.35;;;6.88;;
51612;SDS011;37694;51.748;14.326;2024-03-02T06:08:58;10.48;;;7.07;;
51612;SDS011;37694;51.748;14.326;2024-03-02T06:11:25;8.60;;;6.40;;
51612;SDS011;37694;51.748;14.326;2024-03-02T06:13:50;8.40;;;6.53;;
51612;SDS011;37694;51.748;14.326;2024-03-02T06:16:16;9.35;;;7.20;;
51612;SDS011;37694;51.748;14.326;2024-03-02T06:18:42;13.93;;;7.72;;
51612;SDS011;37694;51.748;14.326;2024-03-02T06:21:07;11.90;;;6.65;;
51612;SDS011;37694;51.748;14.326;2024-03-02T06:23:33;9.68;;;6.65;;
51612;SDS011;37694;51.748;14.326;2024-03-02T06:26:00;12.07;;;6.85;;
51612;SDS011;37694;51.748;14.326;2024-03-02T06:28:25;9.55;;;7.40;;
51612;SDS011;37694;51.748;14.326;2024-03-02T06:30:51;8.75;;;6.38;;
51612;SDS011;37694;51.748;14.326;2024-03-02T06:33:17;7.30;;;6.38;;
51612;SDS011;37694;51.748;14.326;2024-03-02T06:35:43;8.30;;;6.32;;
51612;SDS011;37694;51.748;14.326;2024-03-02T06:38:08;8.65;;;6.72;;
51612;SDS011;37694;51.748;14.326;2024-03-02T06:40:34;9.75;;;6.60;;
51612;SDS011;37694;51.748;14.326;2024-03-02T06:43:00;15.95;;;6.65;;
51612;SDS011;37694;51.748;14.326;2024-03-02T06:45:26;12.20;;;6.72;;
51612;SDS011;37694;51.748;14.326;2024-03-02T06:47:51;29.35;;;7.32;;
51612;SDS011;37694;51.748;14.326;2024-03-02T06:50:17;8.77;;;6.38;;
51612;SDS011;37694;51.748;14.326;2024-03-02T06:52:43;15.80;;;6.97;;
51612;SDS011;37694;51.748;14.326;2024-03-02T06:55:09;14.95;;;5.80;;
51612;SDS011;37694;51.748;14.326;2024-03-02T06:57:34;11.20;;;6.50;;
51612;SDS011;37694;51.748;14.326;2024-03-02T07:00:00;13.38;;;6.47;;
51612;SDS011;37694;51.748;14.326;2024-03-02T07:02:26;9.05;;;6.80;;
51612;SDS011;37694;51.748;14.326;2024-03-02T07:04:55;11.88;;;6.50;;
51612;SDS011;37694;51.748;14.326;2024-03-02T07:07:20;10.73;;;6.32;;
51612;SDS011;37694;51.748;14.326;2024-03-02T07:09:46;5.90;;;5.30;;
51612;SDS011;37694;51.748;14.326;2024-03-02T07:12:13;15.55;;;6.85;;
51612;SDS011;37694;51.748;14.326;2024-03-02T07:14:39;6.45;;;5.47;;
51612;SDS011;37694;51.748;14.326;2024-03-02T07:17:23;11.50;;;5.82;;
51612;SDS011;37694;51.748;14.326;2024-03-02T07:19:49;9.13;;;6.05;;
51612;SDS011;37694;51.748;14.326;2024-03-02T07:22:14;11.40;;;6.47;;
51612;SDS011;37694;51.748;14.326;2024-03-02T07:24:40;17.90;;;7.75;;
51612;SDS011;37694;51.748;14.326;2024-03-02T07:27:07;9.57;;;5.97;;
51612;SDS011;37694;51.748;14.326;2024-03-02T07:29:34;16.52;;;6.75;;
51612;SDS011;37694;51.748;14.326;2024-03-02T07:31:59;7.50;;;5.35;;
51612;SDS011;37694;51.748;14.326;2024-03-02T07:34:25;7.88;;;5.95;;
51612;SDS011;37694;51.748;14.326;2024-03-02T07:36:51;9.80;;;5.57;;
51612;SDS011;37694;51.748;14.326;2024-03-02T07:39:16;15.50;;;6.50;;
51612;SDS011;37694;51.748;14.326;2024-03-02T07:41:42;9.23;;;6.35;;
51612;SDS011;37694;51.748;14.326;2024-03-02T07:44:08;11.60;;;5.65;;
51612;SDS011;37694;51.748;14.326;2024-03-02T07:46:34;7.03;;;5.35;;
51612;SDS011;37694;51.748;14.326;2024-03-02T07:49:00;9.60;;;5.72;;
51612;SDS011;37694;51.748;14.326;2024-03-02T07:51:26;10.20;;;5.63;;
51612;SDS011;37694;51.748;14.326;2024-03-02T07:53:51;9.13;;;6.05;;
51612;SDS011;37694;51.748;14.326;2024-03-02T07:56:17;12.38;;;5.18;;
51612;SDS011;37694;51.748;14.326;2024-03-02T07:58:47;13.52;;;5.32;;
51612;SDS011;37694;51.748;14.326;2024-03-02T08:01:14;8.60;;;4.65;;
51612;SDS011;37694;51.748;14.326;2024-03-02T08:03:40;8.13;;;5.20;;
51612;SDS011;37694;51.748;14.326;2024-03-02T08:06:06;9.48;;;4.70;;
51612;SDS011;37694;51.748;14.326;2024-03-02T08:08:31;8.40;;;4.25;;
51612;SDS011;37694;51.748;14.326;2024-03-02T08:10:57;10.63;;;4.80;;
51612;SDS011;37694;51.748;14.326;2024-03-02T08:13:23;13.25;;;5.20;;
51612;SDS011;37694;51.748;14.326;2024-03-02T08:15:48;14.85;;;7.32;;
51612;SDS011;37694;51.748;14.326;2024-03-02T08:18:14;13.77;;;7.97;;
51612;SDS011;37694;51.748;14.326;2024-03-02T08:20:40;8.27;;;6.63;;
51612;SDS011;37694;51.748;14.326;2024-03-02T08:23:06;12.23;;;6.10;;
51612;SDS011;37694;51.748;14.326;2024-03-02T08:25:33;13.00;;;6.72;;
51612;SDS011;37694;51.748;14.326;2024-03-02T08:27:58;10.23;;;6.43;;
51612;SDS011;37694;51.748;14.326;2024-03-02T08:30:24;16.85;;;6.13;;
51612;SDS011;37694;51.748;14.326;2024-03-02T08:32:50;11.55;;;6.30;;
51612;SDS011;37694;51.748;14.326;2024-03-02T08:35:16;8.45;;;6.15;;
51612;SDS011;37694;51.748;14.326;2024-03-02T08:37:42;22.85;;;8.25;;
51612;SDS011;37694;51.748;14.326;2024-03-02T08:40:08;16.73;;;7.63;;
51612;SDS011;37694;51.748;14.326;2024-03-02T08:42:35;9.23;;;6.75;;
51612;SDS011;37694;51.748;14.326;2024-03-02T08:45:01;20.75;;;7.45;;
51612;SDS011;37694;51.748;14.326;2024-03-02T08:47:27;10.98;;;7.45;;
51612;SDS011;37694;51.748;14.326;2024-03-02T08:49:53;17.30;;;7.45;;
51612;SDS011;37694;51.748;14.326;2024-03-02T08:52:18;13.80;;;7.55;;
51612;SDS011;37694;51.748;14.326;2024-03-02T08:54:44;24.52;;;8.70;;
51612;SDS011;37694;51.748;14.326;2024-03-02T08:57:09;13.35;;;8.73;;
51612;SDS011;37694;51.748;14.326;2024-03-02T08:59:35;17.90;;;8.13;;
51612;SDS011;37694;51.748;14.326;2024-03-02T09:02:01;18.30;;;8.50;;
51612;SDS011;37694;51.748;14.326;2024-03-02T09:04:27;16.65;;;9.85;;
51612;SDS011;37694;51.748;14.326;2024-03-02T09:06:53;15.75;;;9.35;;
51612;SDS011;37694;51.748;14.326;2024-03-02T09:09:19;23.25;;;10.57;;
51612;SDS011;37694;51.748;14.326;2024-03-02T09:11:45;18.30;;;9.80;;
51612;SDS011;37694;51.748;14.326;2024-03-02T09:14:11;19.77;;;9.88;;
51612;SDS011;37694;51.748;14.326;2024-03-02T09:16:37;28.45;;;15.60;;
51612;SDS011;37694;51.748;14.326;2024-03-02T09:19:03;26.38;;;16.02;;
51612;SDS011;37694;51.748;14.326;2024-03-02T09:21:29;26.00;;;15.10;;
51612;SDS011;37694;51.748;14.326;2024-03-02T09:23:55;25.55;;;14.95;;
51612;SDS011;37694;51.748;14.326;2024-03-02T09:26:21;29.58;;;14.07;;
51612;SDS011;37694;51.748;14.326;2024-03-02T09:28:49;24.77;;;14.85;;
51612;SDS011;37694;51.748;14.326;2024-03-02T09:31:15;31.77;;;12.52;;
51612;SDS011;37694;51.748;14.326;2024-03-02T09:33:41;24.75;;;12.77;;
51612;SDS011;37694;51.748;14.326;2024-03-02T09:36:16;23.88;;;11.30;;
51612;SDS011;37694;51.748;14.326;2024-03-02T09:38:43;27.55;;;12.63;;
51612;SDS011;37694;51.748;14.326;2024-03-02T09:41:09;20.13;;;12.60;;
51612;SDS011;37694;51.748;14.326;2024-03-02T09:43:34;20.90;;;11.75;;
51612;SDS011;37694;51.748;14.326;2024-03-02T09:46:00;20.33;;;10.80;;
51612;SDS011;37694;51.748;14.326;2024-03-02T09:48:26;21.52;;;10.85;;
51612;SDS011;37694;51.748;14.326;2024-03-02T09:50:52;23.63;;;8.90;;
51612;SDS011;37694;51.748;14.326;2024-03-02T09:53:18;17.42;;;9.40;;
51612;SDS011;37694;51.748;14.326;2024-03-02T09:55:46;25.52;;;10.02;;
51612;SDS011;37694;51.748;14.326;2024-03-02T09:58:12;17.30;;;9.48;;
51612;SDS011;37694;51.748;14.326;2024-03-02T10:00:38;23.58;;;9.88;;
51612;SDS011;37694;51.748;14.326;2024-03-02T10:03:04;24.38;;;9.60;;
51612;SDS011;37694;51.748;14.326;2024-03-02T10:05:30;31.85;;;10.20;;
51612;SDS011;37694;51.748;14.326;2024-03-02T10:08:00;29.92;;;10.07;;
51612;SDS011;37694;51.748;14.326;2024-03-02T10:10:34;15.77;;;9.45;;
51612;SDS011;37694;51.748;14.326;2024-03-02T10:13:07;17.00;;;9.43;;
51612;SDS011;37694;51.748;14.326;2024-03-02T10:15:33;21.95;;;10.02;;
51612;SDS011;37694;51.748;14.326;2024-03-02T10:18:00;16.35;;;9.35;;
51612;SDS011;37694;51.748;14.326;2024-03-02T10:20:26;19.10;;;10.02;;
51612;SDS011;37694;51.748;14.326;2024-03-02T10:22:54;24.55;;;9.57;;
51612;SDS011;37694;51.748;14.326;2024-03-02T10:25:30;16.08;;;10.48;;
51612;SDS011;37694;51.748;14.326;2024-03-02T10:27:59;24.15;;;10.27;;
51612;SDS011;37694;51.748;14.326;2024-03-02T10:30:26;18.50;;;10.30;;
51612;SDS011;37694;51.748;14.326;2024-03-02T10:32:52;18.90;;;9.68;;
51612;SDS011;37694;51.748;14.326;2024-03-02T10:35:22;35.15;;;9.43;;
51612;SDS011;37694;51.748;14.326;2024-03-02T10:37:51;20.63;;;9.70;;
51612;SDS011;37694;51.748;14.326;2024-03-02T10:40:17;21.40;;;9.85;;
51612;SDS011;37694;51.748;14.326;2024-03-02T10:42:46;21.85;;;8.77;;
51612;SDS011;37694;51.748;14.326;2024-03-02T10:45:13;23.67;;;9.77;;
51612;SDS011;37694;51.748;14.326;2024-03-02T10:47:42;29.65;;;10.20;;
51612;SDS011;37694;51.748;14.326;2024-03-02T10:50:08;19.40;;;10.10;;
51612;SDS011;37694;51.748;14.326;2024-03-02T10:52:37;34.15;;;14.45;;
51612;SDS011;37694;51.748;14.326;2024-03-02T10:55:07;49.63;;;18.45;;
51612;SDS011;37694;51.748;14.326;2024-03-02T10:57:54;39.72;;;18.65;;
51612;SDS011;37694;51.748;14.326;2024-03-02T11:00:21;45.10;;;19.65;;
51612;SDS011;37694;51.748;14.326;2024-03-02T11:02:58;43.92;;;20.45;;
51612;SDS011;37694;51.748;14.326;2024-03-02T11:05:36;38.53;;;19.02;;
51612;SDS011;37694;51.748;14.326;2024-03-02T11:08:07;35.63;;;18.80;;
51612;SDS011;37694;51.748;14.326;2024-03-02T11:10:46;44.22;;;18.70;;
51612;SDS011;37694;51.748;14.326;2024-03-02T11:13:22;33.78;;;16.00;;
51612;SDS011;37694;51.748;14.326;2024-03-02T11:15:55;25.85;;;15.90;;
51612;SDS011;37694;51.748;14.326;2024-03-02T11:18:24;31.42;;;16.00;;
51612;SDS011;37694;51.748;14.326;2024-03-02T11:20:51;22.50;;;14.70;;
51612;SDS011;37694;51.748;14.326;2024-03-02T11:23:17;27.08;;;14.65;;
51612;SDS011;37694;51.748;14.326;2024-03-02T11:25:43;22.52;;;15.13;;
51612;SDS011;37694;51.748;14.326;2024-03-02T11:28:08;21.35;;;14.25;;
51612;SDS011;37694;51.748;14.326;2024-03-02T11:33:02;27.50;;;16.25;;
51612;SDS011;37694;51.748;14.326;2024-03-02T11:35:35;23.85;;;15.85;;
51612;SDS011;37694;51.748;14.326;2024-03-02T11:38:08;27.55;;;16.38;;
51612;SDS011;37694;51.748;14.326;2024-03-02T11:40:34;20.88;;;13.95;;
51612;SDS011;37694;51.748;14.326;2024-03-02T11:43:00;22.77;;;14.70;;
51612;SDS011;37694;51.748;14.326;2024-03-02T11:45:26;19.60;;;12.75;;
51612;SDS011;37694;51.748;14.326;2024-03-02T11:47:56;21.95;;;13.73;;
51612;SDS011;37694;51.748;14.326;2024-03-02T11:50:29;19.50;;;12.82;;
51612;SDS011;37694;51.748;14.326;2024-03-02T11:52:56;19.15;;;11.75;;
51612;SDS011;37694;51.748;14.326;2024-03-02T11:55:23;17.90;;;12.40;;
51612;SDS011;37694;51.748;14.326;2024-03-02T11:57:54;21.55;;;12.55;;
51612;SDS011;37694;51.748;14.326;2024-03-02T12:00:20;16.58;;;11.35;;
51612;SDS011;37694;51.748;14.326;2024-03-02T12:02:47;25.20;;;12.23;;
51612;SDS011;37694;51.748;14.326;2024-03-02T12:05:24;24.23;;;11.73;;
51612;SDS011;37694;51.748;14.326;2024-03-02T12:07:55;15.68;;;11.95;;
51612;SDS011;37694;51.748;14.326;2024-03-02T12:10:22;19.73;;;11.30;;
51612;SDS011;37694;51.748;14.326;2024-03-02T12:12:49;20.00;;;10.88;;
51612;SDS011;37694;51.748;14.326;2024-03-02T12:15:22;16.93;;;10.23;;
51612;SDS011;37694;51.748;14.326;2024-03-02T12:17:52;17.10;;;11.32;;
51612;SDS011;37694;51.748;14.326;2024-03-02T12:20:19;18.10;;;10.90;;
51612;SDS011;37694;51.748;14.326;2024-03-02T12:22:45;22.67;;;11.38;;
51612;SDS011;37694;51.748;14.326;2024-03-02T12:25:11;28.73;;;13.57;;
51612;SDS011;37694;51.748;14.326;2024-03-02T12:27:36;19.30;;;11.73;;
51612;SDS011;37694;51.748;14.326;2024-03-02T12:30:04;19.35;;;10.93;;
51612;SDS011;37694;51.748;14.326;2024-03-02T12:32:33;30.60;;;13.60;;
51612;SDS011;37694;51.748;14.326;2024-03-02T12:34:59;29.08;;;12.15;;
51612;SDS011;37694;51.748;14.326;2024-03-02T12:37:25;30.65;;;11.57;;
51612;SDS011;37694;51.748;14.326;2024-03-02T12:39:52;21.73;;;12.52;;
51612;SDS011;37694;51.748;14.326;2024-03-02T12:42:18;26.08;;;12.02;;
51612;SDS011;37694;51.748;14.326;2024-03-02T12:44:44;20.17;;;11.82;;
51612;SDS011;37694;51.748;14.326;2024-03-02T12:47:09;26.30;;;11.85;;
51612;SDS011;37694;51.748;14.326;2024-03-02T12:49:37;33.35;;;12.43;;
51612;SDS011;37694;51.748;14.326;2024-03-02T12:52:05;21.13;;;10.20;;
51612;SDS011;37694;51.748;14.326;2024-03-02T12:54:31;29.25;;;10.43;;
51612;SDS011;37694;51.748;14.326;2024-03-02T12:56:58;22.60;;;10.50;;
51612;SDS011;37694;51.748;14.326;2024-03-02T12:59:24;19.00;;;11.32;;
51612;SDS011;37694;51.748;14.326;2024-03-02T13:01:54;22.80;;;10.40;;
51612;SDS011;37694;51.748;14.326;2024-03-02T13:04:24;22.00;;;10.20;;
51612;SDS011;37694;51.748;14.326;2024-03-02T13:06:51;16.17;;;9.05;;
51612;SDS011;37694;51.748;14.326;2024-03-02T13:09:18;32.08;;;11.60;;
51612;SDS011;37694;51.748;14.326;2024-03-02T13:11:44;29.85;;;11.45;;
51612;SDS011;37694;51.748;14.326;2024-03-02T13:14:10;31.95;;;11.68;;
51612;SDS011;37694;51.748;14.326;2024-03-02T13:16:39;33.58;;;10.77;;
51612;SDS011;37694;51.748;14.326;2024-03-02T13:19:08;36.80;;;10.63;;
51612;SDS011;37694;51.748;14.326;2024-03-02T13:21:34;32.13;;;10.50;;
51612;SDS011;37694;51.748;14.326;2024-03-02T13:24:00;53.28;;;11.40;;
51612;SDS011;37694;51.748;14.326;2024-03-02T13:26:26;32.15;;;10.75;;
51612;SDS011;37694;51.748;14.326;2024-03-02T13:28:52;42.05;;;10.70;;
51612;SDS011;37694;51.748;14.326;2024-03-02T13:31:18;31.70;;;10.00;;
51612;SDS011;37694;51.748;14.326;2024-03-02T13:33:44;41.70;;;11.25;;
51612;SDS011;37694;51.748;14.326;2024-03-02T13:36:09;38.75;;;12.23;;
51612;SDS011;37694;51.748;14.326;2024-03-02T13:38:35;54.58;;;12.50;;
51612;SDS011;37694;51.748;14.326;2024-03-02T13:41:01;45.80;;;11.35;;
51612;SDS011;37694;51.748;14.326;2024-03-02T13:43:27;45.33;;;12.07;;
51612;SDS011;37694;51.748;14.326;2024-03-02T13:45:53;34.25;;;10.98;;
51612;SDS011;37694;51.748;14.326;2024-03-02T13:48:19;53.05;;;11.77;;
51612;SDS011;37694;51.748;14.326;2024-03-02T13:50:45;40.03;;;10.93;;
51612;SDS011;37694;51.748;14.326;2024-03-02T13:53:11;30.90;;;9.57;;
51612;SDS011;37694;51.748;14.326;2024-03-02T13:55:37;25.27;;;10.75;;
51612;SDS011;37694;51.748;14.326;2024-03-02T13:58:03;30.75;;;10.25;;
51612;SDS011;37694;51.748;14.326;2024-03-02T14:00:29;26.63;;;9.90;;
51612;SDS011;37694;51.748;14.326;2024-03-02T14:02:56;35.65;;;9.13;;
51612;SDS011;37694;51.748;14.326;2024-03-02T14:05:22;42.17;;;11.50;;
51612;SDS011;37694;51.748;14.326;2024-03-02T14:07:47;29.48;;;9.77;;
51612;SDS011;37694;51.748;14.326;2024-03-02T14:10:13;37.47;;;9.82;;
51612;SDS011;37694;51.748;14.326;2024-03-02T14:12:40;68.93;;;14.55;;
51612;SDS011;37694;51.748;14.326;2024-03-02T14:15:06;26.65;;;10.13;;
51612;SDS011;37694;51.748;14.326;2024-03-02T14:17:32;84.80;;;11.50;;
51612;SDS011;37694;51.748;14.326;2024-03-02T14:19:58;45.72;;;10.88;;
51612;SDS011;37694;51.748;14.326;2024-03-02T14:22:24;44.35;;;9.77;;
51612;SDS011;37694;51.748;14.326;2024-03-02T14:24:50;27.42;;;9.77;;